createdAt,value
2023-01-19T00:02:18.737Z,35.50
2023-01-19T00:05:20.629Z,36.50
2023-01-19T00:11:24.452Z,34.70
2023-01-19T00:14:26.236Z,38.00
2023-01-19T00:20:29.584Z,35.90
2023-01-19T00:26:32.584Z,36.90
2023-01-19T00:29:34.151Z,37.30
2023-01-19T00:32:35.775Z,36.70
2023-01-19T00:35:37.400Z,35.90
2023-01-19T00:38:39.049Z,39.40
2023-01-19T00:44:42.431Z,43.10
2023-01-19T00:50:45.545Z,55.10
2023-01-19T00:53:47.059Z,54.80
2023-01-19T00:56:48.740Z,54.70
2023-01-19T00:59:50.435Z,56.90
2023-01-19T01:02:53.167Z,59.40
2023-01-19T01:05:54.886Z,60.60
2023-01-19T01:08:56.496Z,60.70
2023-01-19T01:11:58.162Z,57.50
2023-01-19T01:15:01.700Z,55.90
2023-01-19T01:18:03.357Z,54.80
2023-01-19T01:24:08.464Z,53.50
2023-01-19T01:27:10.168Z,57.50
2023-01-19T01:30:13.619Z,60.30
2023-01-19T01:33:15.313Z,63.10
2023-01-19T01:36:36.950Z,59.90
2023-01-19T01:39:38.691Z,61.50
2023-01-19T01:45:42.714Z,60.40
2023-01-19T01:48:48.954Z,65.50
2023-01-19T01:51:52.963Z,63.20
2023-01-19T01:54:54.807Z,60.90
2023-01-19T02:00:58.659Z,61.70
2023-01-19T02:07:01.891Z,51.20
2023-01-19T02:10:03.603Z,47.10
2023-01-19T02:13:05.202Z,47.70
2023-01-19T02:16:08.167Z,54.80
2023-01-19T02:19:14.149Z,50.10
2023-01-19T02:22:25.069Z,60.50
2023-01-19T02:25:27.093Z,45.30
2023-01-19T02:28:29.567Z,41.20
2023-01-19T02:31:33.430Z,36.20
2023-01-19T02:34:35.283Z,34.80
2023-01-19T02:37:38.228Z,34.80
2023-01-19T02:40:42.148Z,33.90
2023-01-19T02:43:44.254Z,34.30
2023-01-19T02:46:45.825Z,34.90
2023-01-19T02:50:32.866Z,33.60
2023-01-19T02:54:05.071Z,36.30
2023-01-19T02:57:31.993Z,34.80
2023-01-19T03:01:18.606Z,42.20
2023-01-19T03:04:49.533Z,37.30
2023-01-19T03:07:57.047Z,37.90
2023-01-19T03:11:08.347Z,36.90
2023-01-19T03:14:15.741Z,36.60
2023-01-19T03:17:18.164Z,37.30
2023-01-19T03:20:24.143Z,36.50
2023-01-19T03:23:27.950Z,35.80
2023-01-19T03:26:31.882Z,32.20
2023-01-19T03:29:34.493Z,32.50
2023-01-19T03:32:39.404Z,31.60
2023-01-19T03:35:44.948Z,33.50
2023-01-19T03:38:47.309Z,34.40
2023-01-19T03:41:56.754Z,33.60
2023-01-19T03:45:00.398Z,34.40
2023-01-19T03:48:02.251Z,35.70
2023-01-19T03:54:07.251Z,37.40
2023-01-19T03:57:09.168Z,37.50
2023-01-19T04:00:12.067Z,38.80
2023-01-19T04:03:15.564Z,40.20
2023-01-19T04:06:18.020Z,40.60
2023-01-19T04:09:20.246Z,42.70
2023-01-19T04:12:22.304Z,41.30
2023-01-19T04:18:25.688Z,45.00
2023-01-19T04:21:27.581Z,41.50
2023-01-19T04:24:29.508Z,45.10
2023-01-19T04:27:31.267Z,42.50
2023-01-19T04:30:33.943Z,43.50
2023-01-19T04:33:35.610Z,42.90
2023-01-19T04:36:37.182Z,48.60
2023-01-19T04:39:38.769Z,47.90
2023-01-19T04:42:44.073Z,55.50
2023-01-19T04:45:46.765Z,55.30
2023-01-19T04:48:48.328Z,54.10
2023-01-19T04:51:53.047Z,65.70
2023-01-19T04:54:54.567Z,47.90
2023-01-19T04:57:56.436Z,47.50
2023-01-19T05:00:57.968Z,45.60
2023-01-19T05:03:59.560Z,43.70
2023-01-19T05:07:01.100Z,43.80
2023-01-19T05:10:02.824Z,51.00
2023-01-19T05:16:06.706Z,56.00
2023-01-19T05:19:08.422Z,63.20
2023-01-19T05:22:10.347Z,68.20
2023-01-19T05:25:11.917Z,70.70
2023-01-19T05:28:13.475Z,59.60
2023-01-19T05:31:15.228Z,65.60
2023-01-19T05:34:17.650Z,69.70
2023-01-19T05:37:19.720Z,50.70
2023-01-19T05:40:21.368Z,55.10
2023-01-19T05:43:22.943Z,44.40
2023-01-19T05:46:24.637Z,50.90
2023-01-19T05:49:26.418Z,54.00
2023-01-19T05:52:28.280Z,49.80
2023-01-19T05:55:29.867Z,48.00
2023-01-19T05:58:32.352Z,44.10
2023-01-19T06:01:34.143Z,46.10
2023-01-19T06:07:37.485Z,48.30
2023-01-19T06:10:39.094Z,48.00
2023-01-19T06:16:44.050Z,40.70
2023-01-19T06:22:47.400Z,40.90
2023-01-19T06:25:49.286Z,53.90
2023-01-19T06:31:53.026Z,39.20
2023-01-19T06:34:54.770Z,37.80
2023-01-19T06:40:58.709Z,41.00
2023-01-19T06:44:00.708Z,41.10
2023-01-19T06:50:17.507Z,41.20
2023-01-19T06:56:20.924Z,44.30
2023-01-19T06:59:23.113Z,44.70
2023-01-19T07:02:27.770Z,47.30
2023-01-19T07:05:30.084Z,54.20
2023-01-19T07:11:33.962Z,53.40
2023-01-19T07:14:35.756Z,51.20
2023-01-19T07:20:39.269Z,54.80
2023-01-19T07:26:42.445Z,63.80
2023-01-19T07:29:44.052Z,60.30
2023-01-19T07:32:45.695Z,56.00
2023-01-19T07:35:48.125Z,57.50
2023-01-19T07:38:49.848Z,55.70
2023-01-19T07:44:53.175Z,48.10
2023-01-19T07:47:54.756Z,49.50
2023-01-19T07:54:01.872Z,48.90
2023-01-19T07:57:03.681Z,52.00
2023-01-19T08:03:07.283Z,54.10
2023-01-19T08:06:21.152Z,54.00
2023-01-19T08:09:22.751Z,49.00
2023-01-19T08:12:24.416Z,50.00
2023-01-19T08:18:27.915Z,46.90
2023-01-19T08:24:31.605Z,50.50
2023-01-19T08:27:33.349Z,53.60
2023-01-19T08:33:37.010Z,46.20
2023-01-19T08:36:38.549Z,48.50
2023-01-19T08:39:40.184Z,46.40
2023-01-19T08:42:41.847Z,43.30
2023-01-19T08:45:46.837Z,45.20
2023-01-19T08:48:48.622Z,46.00
2023-01-19T08:54:51.852Z,47.90
2023-01-19T08:57:54.210Z,46.70
2023-01-19T09:00:56.103Z,48.60
2023-01-19T09:03:57.815Z,49.90
2023-01-19T09:06:59.426Z,51.20
2023-01-19T09:13:06.939Z,52.80
2023-01-19T09:16:09.736Z,55.30
2023-01-19T09:19:11.400Z,53.90
2023-01-19T09:22:13.075Z,51.90
2023-01-19T09:25:14.897Z,53.90
2023-01-19T09:31:18.536Z,50.40
2023-01-19T09:34:20.292Z,45.90
2023-01-19T09:37:22.400Z,45.20
2023-01-19T09:40:24.085Z,43.40
2023-01-19T09:46:42.034Z,44.50
2023-01-19T09:49:47.523Z,49.00
2023-01-19T09:52:56.199Z,49.60
2023-01-19T09:55:57.840Z,47.00
2023-01-19T09:59:00.585Z,39.70
2023-01-19T10:02:21.962Z,40.40
2023-01-19T10:05:46.067Z,43.60
2023-01-19T10:08:57.189Z,47.70
2023-01-19T10:12:07.833Z,52.50
2023-01-19T10:15:20.372Z,51.80
2023-01-19T10:18:42.094Z,55.30
2023-01-19T10:21:44.732Z,50.80
2023-01-19T10:24:47.579Z,47.40
2023-01-19T10:27:49.419Z,46.30
2023-01-19T10:30:54.178Z,45.50
2023-01-19T10:33:55.807Z,45.00
2023-01-19T10:40:08.902Z,50.50
2023-01-19T10:43:36.433Z,51.90
2023-01-19T10:46:46.984Z,53.50
2023-01-19T10:49:49.131Z,54.00
2023-01-19T10:52:52.932Z,56.80
2023-01-19T10:56:14.609Z,52.90
2023-01-19T10:59:46.776Z,50.00
2023-01-19T11:05:53.570Z,48.60
2023-01-19T11:09:11.280Z,53.00
2023-01-19T11:12:23.231Z,56.40
2023-01-19T11:15:32.244Z,48.90
2023-01-19T11:18:36.243Z,45.90
2023-01-19T11:21:37.891Z,41.90
2023-01-19T11:27:49.338Z,41.60
2023-01-19T11:31:02.412Z,43.90
2023-01-19T11:34:06.146Z,46.60
2023-01-19T11:37:16.851Z,47.60
2023-01-19T11:40:18.600Z,47.20
2023-01-19T11:43:21.926Z,48.50
2023-01-19T11:46:26.314Z,52.20
2023-01-19T11:49:37.020Z,52.70
2023-01-19T11:52:50.149Z,52.80
2023-01-19T11:56:00.494Z,54.00
2023-01-19T11:59:02.666Z,52.60
2023-01-19T12:02:15.981Z,48.10
2023-01-19T12:05:19.665Z,51.30
2023-01-19T12:08:37.588Z,48.60
2023-01-19T12:11:58.120Z,44.40
2023-01-19T12:15:04.428Z,43.30
2023-01-19T12:18:07.588Z,44.30
2023-01-19T12:21:09.405Z,40.00
2023-01-19T12:27:25.601Z,36.20
2023-01-19T12:30:29.645Z,35.00
2023-01-19T12:33:36.932Z,37.30
2023-01-19T12:36:38.905Z,38.60
2023-01-19T12:39:48.063Z,35.70
2023-01-19T12:43:04.975Z,35.30
2023-01-19T12:46:44.477Z,36.90
2023-01-19T12:49:48.717Z,33.80
2023-01-19T12:52:55.914Z,34.60
2023-01-19T12:55:59.111Z,35.20
2023-01-19T12:59:00.935Z,34.50
2023-01-19T13:02:20.871Z,34.10
2023-01-19T13:05:55.140Z,34.70
2023-01-19T13:08:59.506Z,36.10
2023-01-19T13:12:20.752Z,35.50
2023-01-19T13:15:34.568Z,35.90
2023-01-19T13:18:40.648Z,32.30
2023-01-19T13:21:47.955Z,29.70
2023-01-19T13:25:12.006Z,32.20
2023-01-19T13:28:16.860Z,34.10
2023-01-19T13:31:19.102Z,31.60
2023-01-19T13:34:24.591Z,32.20
2023-01-19T13:37:39.244Z,32.10
2023-01-19T13:40:40.856Z,35.90
2023-01-19T13:43:42.942Z,38.10
2023-01-19T13:46:45.995Z,41.00
2023-01-19T13:49:48.328Z,41.60
2023-01-19T13:52:50.000Z,42.90
2023-01-19T13:56:30.439Z,49.70
2023-01-19T13:59:32.107Z,51.80
2023-01-19T14:02:34.179Z,51.90
2023-01-19T14:05:38.943Z,49.70
2023-01-19T14:08:40.818Z,54.00
2023-01-19T14:11:43.985Z,51.70
2023-01-19T14:14:46.039Z,55.80
2023-01-19T14:18:08.324Z,64.60
2023-01-19T14:21:12.298Z,64.40
2023-01-19T14:24:19.074Z,66.30
2023-01-19T14:27:24.180Z,83.70
2023-01-19T14:30:25.956Z,77.40
2023-01-19T14:33:42.229Z,79.50
2023-01-19T14:36:43.991Z,83.50
2023-01-19T14:40:08.565Z,85.00
2023-01-19T14:43:12.500Z,89.60
2023-01-19T14:46:20.770Z,82.80
2023-01-19T14:49:30.277Z,85.40
2023-01-19T14:52:36.457Z,80.80
2023-01-19T14:55:43.905Z,77.70
2023-01-19T14:58:45.431Z,83.00
2023-01-19T15:01:47.161Z,88.00
2023-01-19T15:07:50.441Z,82.90
2023-01-19T15:10:52.078Z,82.80
2023-01-19T15:13:53.794Z,85.50
2023-01-19T15:16:55.424Z,88.10
2023-01-19T15:19:57.077Z,92.70
2023-01-19T15:22:58.766Z,90.70
2023-01-19T15:26:01.888Z,89.80
2023-01-19T15:29:12.225Z,90.90
2023-01-19T15:32:14.735Z,92.40
2023-01-19T15:35:19.541Z,93.20
2023-01-19T15:38:21.123Z,90.90
2023-01-19T15:41:25.910Z,90.10
2023-01-19T15:44:27.569Z,85.00
2023-01-19T15:47:29.155Z,77.90
2023-01-19T15:50:31.116Z,74.90
2023-01-19T15:53:35.707Z,72.80
2023-01-19T15:56:37.362Z,71.20
2023-01-19T15:59:38.933Z,66.90
2023-01-19T16:02:40.759Z,61.70
2023-01-19T16:05:43.573Z,63.70
2023-01-19T16:08:45.453Z,61.30
2023-01-19T16:14:48.678Z,56.30
2023-01-19T16:17:50.280Z,55.00
2023-01-19T16:20:51.888Z,58.30
2023-01-19T16:23:53.943Z,61.20
2023-01-19T16:29:57.228Z,56.90
2023-01-19T16:36:17.893Z,54.10
2023-01-19T16:39:19.541Z,57.10
2023-01-19T16:42:21.955Z,55.90
2023-01-19T16:45:23.566Z,51.60
2023-01-19T16:48:26.335Z,52.50
2023-01-19T16:51:28.399Z,51.20
2023-01-19T16:54:30.200Z,51.70
2023-01-19T17:00:33.455Z,51.30
2023-01-19T17:03:35.707Z,49.40
2023-01-19T17:06:37.395Z,48.90
2023-01-19T17:12:40.736Z,43.80
2023-01-19T17:15:42.443Z,46.10
2023-01-19T17:18:44.075Z,46.70
2023-01-19T17:21:46.809Z,48.60
2023-01-19T17:24:48.555Z,44.90
2023-01-19T17:30:51.959Z,45.90
2023-01-19T17:36:55.520Z,50.50
2023-01-19T17:39:57.361Z,49.10
2023-01-19T17:46:00.609Z,51.70
2023-01-19T17:52:05.036Z,50.60
2023-01-19T17:58:08.204Z,49.60
2023-01-19T18:01:19.847Z,52.70
2023-01-19T18:04:21.608Z,52.00
2023-01-19T18:07:23.152Z,51.10
2023-01-19T18:10:24.903Z,50.40
2023-01-19T18:16:29.849Z,47.70
2023-01-19T18:19:31.482Z,47.20
2023-01-19T18:22:32.974Z,49.40
2023-01-19T18:25:34.623Z,50.30
2023-01-19T18:28:36.446Z,47.20
2023-01-19T18:34:39.838Z,51.10
2023-01-19T18:40:43.037Z,55.80
2023-01-19T18:43:44.886Z,55.30
2023-01-19T18:46:46.574Z,49.60
2023-01-19T18:49:48.140Z,52.90
2023-01-19T18:52:49.743Z,54.40
2023-01-19T18:55:53.908Z,59.70
2023-01-19T18:58:55.472Z,54.70
2023-01-19T19:01:57.023Z,51.20
2023-01-19T19:04:58.660Z,49.60
2023-01-19T19:08:00.401Z,55.10
2023-01-19T19:11:02.080Z,50.90
2023-01-19T19:14:04.212Z,49.90
2023-01-19T19:17:05.729Z,53.00
2023-01-19T19:20:07.687Z,51.50
2023-01-19T19:23:10.788Z,54.70
2023-01-19T19:26:12.460Z,55.80
2023-01-19T19:29:14.082Z,51.60
2023-01-19T19:32:15.691Z,49.70
2023-01-19T19:35:17.554Z,43.30
2023-01-19T19:41:25.432Z,59.20
2023-01-19T19:44:27.095Z,60.70
2023-01-19T19:47:28.741Z,56.90
2023-01-19T19:50:30.307Z,61.00
2023-01-19T19:53:32.085Z,49.70
2023-01-19T19:56:33.830Z,46.90
2023-01-19T19:59:35.495Z,55.30
2023-01-19T20:02:37.403Z,44.60
2023-01-19T20:05:39.353Z,47.30
2023-01-19T20:08:41.416Z,47.00
2023-01-19T20:11:45.184Z,47.90
2023-01-19T20:14:46.681Z,58.80
2023-01-19T20:17:48.351Z,48.30
2023-01-19T20:20:49.939Z,48.00
2023-01-19T20:23:52.435Z,46.00
2023-01-19T20:26:54.043Z,45.70
2023-01-19T20:29:55.628Z,46.00
2023-01-19T20:32:57.310Z,45.50
2023-01-19T20:35:58.847Z,50.30
2023-01-19T20:39:00.816Z,49.90
2023-01-19T20:42:02.415Z,56.40
2023-01-19T20:45:04.339Z,57.70
2023-01-19T20:48:05.948Z,60.50
2023-01-19T20:51:12.473Z,58.70
2023-01-19T20:54:16.775Z,57.00
2023-01-19T20:57:18.340Z,56.20
2023-01-19T21:00:20.352Z,54.30
2023-01-19T21:03:21.953Z,54.20
2023-01-19T21:06:23.541Z,55.60
2023-01-19T21:09:25.091Z,55.00
2023-01-19T21:12:26.720Z,53.20
2023-01-19T21:18:29.885Z,53.40
2023-01-19T21:21:32.170Z,52.30
2023-01-19T21:24:33.916Z,52.40
2023-01-19T21:27:35.530Z,56.20
2023-01-19T21:30:37.214Z,54.80
2023-01-19T21:33:43.309Z,56.00
2023-01-19T21:36:44.936Z,57.20
2023-01-19T21:39:46.608Z,62.20
2023-01-19T21:42:48.136Z,59.60
2023-01-19T21:45:50.124Z,61.70
2023-01-19T21:48:51.826Z,60.40
2023-01-19T21:51:53.555Z,62.40
2023-01-19T21:54:55.116Z,61.00
2023-01-19T21:57:57.330Z,61.90
2023-01-19T22:01:06.055Z,59.10
2023-01-19T22:04:07.673Z,62.10
2023-01-19T22:07:09.827Z,64.00
2023-01-19T22:10:11.813Z,60.90
2023-01-19T22:13:13.341Z,63.40
2023-01-19T22:16:18.274Z,61.30
2023-01-19T22:19:19.871Z,63.40
2023-01-19T22:22:21.503Z,65.80
2023-01-19T22:25:23.219Z,62.90
2023-01-19T22:28:24.747Z,59.90
2023-01-19T22:31:27.804Z,62.40
2023-01-19T22:34:29.404Z,64.60
2023-01-19T22:40:36.241Z,61.20
2023-01-19T22:43:37.970Z,63.10
2023-01-19T22:46:39.535Z,61.10
2023-01-19T22:49:41.095Z,64.50
2023-01-19T22:52:42.632Z,63.00
2023-01-19T22:55:44.181Z,60.50
2023-01-19T22:58:46.474Z,60.90
2023-01-19T23:01:49.353Z,63.40
2023-01-19T23:04:51.010Z,69.10
2023-01-19T23:07:52.584Z,66.10
2023-01-19T23:10:54.329Z,68.70
2023-01-19T23:13:55.933Z,69.30
2023-01-19T23:16:57.592Z,70.90
2023-01-19T23:19:59.104Z,69.40
2023-01-19T23:23:00.788Z,68.50
2023-01-19T23:29:07.148Z,68.40
2023-01-19T23:32:08.714Z,68.90
2023-01-19T23:35:10.247Z,68.00
2023-01-19T23:38:11.916Z,72.20
2023-01-19T23:44:16.931Z,69.20
2023-01-19T23:47:18.631Z,67.30
2023-01-19T23:50:20.208Z,65.60
2023-01-19T23:53:21.834Z,67.50
2023-01-19T23:56:28.670Z,70.10
2023-01-19T23:59:30.280Z,66.20
